Time;durP1;ratioP1;P1;durP2;ratioP2;P2;SDS_P1;SDS_P2;PMS_P1;PMS_P2;Temp;Humidity;BMP_temperature;BMP_pressure;BME280_temperature;BME280_humidity;BME280_pressure;Samples;Min_cycle;Max_cycle;Signal;HPM_P1;HPM_P2
2022/08/18 00:01:47;;;;;;;1.00;0.90;;;16.50;99.90;;;;;;5096644;28;20437;-70
2022/08/18 00:04:13;;;;;;;1.57;1.50;;;16.40;99.90;;;;;;5096864;28;20884;-70
2022/08/18 00:06:40;;;;;;;0.87;0.87;;;16.50;99.90;;;;;;5096648;28;20448;-69
2022/08/18 00:09:08;;;;;;;1.77;0.93;;;16.40;99.90;;;;;;5096446;28;20413;-69
2022/08/18 00:11:39;;;;;;;0.97;0.90;;;16.40;99.90;;;;;;5096643;28;20747;-69
2022/08/18 00:14:06;;;;;;;1.40;1.30;;;16.40;99.90;;;;;;5097061;28;20403;-70
2022/08/18 00:16:31;;;;;;;0.50;0.50;;;16.50;99.90;;;;;;5096460;28;20469;-69
2022/08/18 00:18:57;;;;;;;1.13;0.70;;;16.40;99.90;;;;;;5096340;28;20499;-70
2022/08/18 00:21:23;;;;;;;1.10;1.10;;;16.50;99.90;;;;;;5096274;28;20176;-70
2022/08/18 00:23:49;;;;;;;1.70;0.90;;;16.60;99.90;;;;;;5096521;28;20173;-70
2022/08/18 00:26:14;;;;;;;0.93;0.73;;;16.70;99.90;;;;;;5096311;28;20172;-69
2022/08/18 00:28:40;;;;;;;0.80;0.80;;;16.70;99.90;;;;;;5096179;28;20411;-70
2022/08/18 00:31:06;;;;;;;6.80;2.43;;;16.70;99.90;;;;;;5096386;28;20593;-70
2022/08/18 00:33:32;;;;;;;0.70;0.63;;;16.80;99.90;;;;;;5096224;28;20176;-69
2022/08/18 00:35:57;;;;;;;0.63;0.63;;;16.90;99.90;;;;;;5096292;28;20622;-69
2022/08/18 00:38:23;;;;;;;1.10;1.10;;;16.90;99.90;;;;;;5096040;28;20426;-68
2022/08/18 00:40:50;;;;;;;1.53;1.43;;;16.90;99.90;;;;;;5096063;28;20173;-69
2022/08/18 00:43:23;;;;;;;2.40;2.20;;;16.90;99.90;;;;;;5096140;28;20247;-70
2022/08/18 00:45:49;;;;;;;1.23;1.00;;;16.90;99.90;;;;;;5096084;28;20404;-70
2022/08/18 00:48:15;;;;;;;1.60;1.50;;;17.00;99.90;;;;;;5095656;28;20992;-70
2022/08/18 00:50:45;;;;;;;0.60;0.60;;;17.00;99.90;;;;;;5096005;28;20567;-69
2022/08/18 00:53:18;;;;;;;1.90;1.80;;;17.00;99.90;;;;;;5095808;28;20169;-71
2022/08/18 00:55:47;;;;;;;0.97;0.97;;;17.00;99.90;;;;;;5095994;28;20398;-70
2022/08/18 00:58:20;;;;;;;1.63;1.53;;;17.00;99.90;;;;;;5095482;28;20441;-70
2022/08/18 01:00:49;;;;;;;5.23;2.80;;;17.00;99.90;;;;;;5095816;28;20426;-70
2022/08/18 01:03:17;;;;;;;1.63;1.53;;;17.00;99.90;;;;;;5077487;28;20978;-69
2022/08/18 01:06:13;;;;;;;2.00;1.47;;;17.00;99.90;;;;;;5095469;28;20411;-70
2022/08/18 01:08:40;;;;;;;1.00;1.00;;;17.00;99.90;;;;;;5090035;28;20781;-69
2022/08/18 01:11:06;;;;;;;1.00;1.00;;;17.00;99.90;;;;;;5095573;28;20406;-69
2022/08/18 01:13:34;;;;;;;2.50;1.50;;;17.00;99.90;;;;;;5095521;28;20411;-69
2022/08/18 01:21:49;;;;;;;1.27;1.20;;;17.00;99.90;;;;;;5095351;28;20405;-68
2022/08/18 01:21:52;;;;;;;2.73;2.50;;;16.90;99.90;;;;;;5095282;28;20450;-70
2022/08/18 01:27:17;;;;;;;1.27;1.27;;;16.70;99.90;;;;;;5095464;28;20941;-71
2022/08/18 01:29:49;;;;;;;1.00;0.90;;;16.70;99.90;;;;;;5095106;28;20878;-70
2022/08/18 01:32:18;;;;;;;1.77;1.53;;;16.70;99.90;;;;;;5095239;28;20403;-70
2022/08/18 01:34:46;;;;;;;1.40;1.33;;;16.60;99.90;;;;;;5094995;28;20434;-69
2022/08/18 01:37:16;;;;;;;1.57;1.47;;;16.60;99.90;;;;;;5095152;28;20426;-70
2022/08/18 01:39:43;;;;;;;1.87;1.60;;;16.50;99.90;;;;;;5094884;28;20490;-70
2022/08/18 01:42:09;;;;;;;1.63;0.60;;;16.50;99.90;;;;;;5094817;28;20478;-69
2022/08/18 01:44:34;;;;;;;1.07;1.07;;;16.50;99.90;;;;;;5094440;28;20395;-68
2022/08/18 01:47:00;;;;;;;1.67;1.57;;;16.40;99.90;;;;;;5094670;28;20789;-70
2022/08/18 01:49:27;;;;;;;1.70;1.60;;;16.30;99.90;;;;;;5094507;28;20504;-69
2022/08/18 01:51:54;;;;;;;1.30;1.10;;;16.30;99.90;;;;;;5094749;28;20167;-70
2022/08/18 01:54:20;;;;;;;2.00;1.80;;;16.30;99.90;;;;;;5094695;28;20421;-69
2022/08/18 01:56:48;;;;;;;3.40;1.73;;;16.40;99.90;;;;;;5094378;28;20432;-70
2022/08/18 01:59:14;;;;;;;2.00;0.80;;;16.40;99.90;;;;;;5094347;28;20407;-70
2022/08/18 02:01:46;;;;;;;1.13;1.13;;;16.50;99.90;;;;;;5094247;28;20494;-69
2022/08/18 02:04:15;;;;;;;1.50;1.40;;;16.60;99.90;;;;;;5094504;28;20407;-69
2022/08/18 02:06:41;;;;;;;1.30;1.20;;;16.60;99.90;;;;;;5094286;28;20443;-71
2022/08/18 02:09:06;;;;;;;1.87;1.60;;;16.60;99.90;;;;;;5094167;28;20490;-70
2022/08/18 02:11:32;;;;;;;0.90;0.90;;;16.60;99.90;;;;;;5094355;28;20176;-70
2022/08/18 02:13:58;;;;;;;0.90;0.77;;;16.70;99.90;;;;;;5094396;28;20251;-69
2022/08/18 02:16:23;;;;;;;1.40;1.30;;;16.70;99.90;;;;;;5094659;28;20430;-68
2022/08/18 02:18:49;;;;;;;1.67;1.03;;;16.70;99.90;;;;;;5094065;28;20184;-69
2022/08/18 02:21:17;;;;;;;1.50;1.40;;;16.70;99.90;;;;;;5094644;28;20571;-70
2022/08/18 02:23:44;;;;;;;1.70;1.60;;;16.80;99.90;;;;;;5094301;28;20169;-70
2022/08/18 02:26:13;;;;;;;2.10;1.90;;;16.80;99.90;;;;;;5075937;28;20903;-70
2022/08/18 02:28:39;;;;;;;1.73;1.60;;;16.90;99.90;;;;;;5093811;28;20489;-69
2022/08/18 02:31:07;;;;;;;1.63;1.53;;;16.90;99.90;;;;;;5094028;28;20431;-70
2022/08/18 02:33:33;;;;;;;1.50;1.40;;;16.90;99.90;;;;;;5094027;28;20754;-69
2022/08/18 02:36:00;;;;;;;1.73;1.63;;;16.90;99.90;;;;;;5094126;28;20815;-69
2022/08/18 02:38:25;;;;;;;1.53;1.00;;;16.90;99.90;;;;;;5093680;28;20430;-69
2022/08/18 02:41:00;;;;;;;1.10;1.10;;;17.00;99.90;;;;;;5094004;28;20413;-70
2022/08/18 02:43:27;;;;;;;1.97;1.87;;;17.00;99.90;;;;;;5094184;28;20804;-69
2022/08/18 02:45:53;;;;;;;1.37;1.27;;;17.10;99.90;;;;;;5093982;28;20765;-69
2022/08/18 02:48:52;;;;;;;1.80;1.23;;;17.20;99.90;;;;;;5093542;28;20421;-70
2022/08/18 02:51:13;;;;;;;1.47;1.37;;;17.10;99.90;;;;;;5089746;28;20463;-69
2022/08/18 02:53:41;;;;;;;1.40;1.30;;;17.10;99.90;;;;;;5093826;28;20736;-70
2022/08/18 02:56:26;;;;;;;1.33;1.10;;;17.10;99.90;;;;;;5092689;28;20794;-69
2022/08/18 02:58:59;;;;;;;2.23;1.00;;;17.10;99.90;;;;;;5093605;28;20428;-69
2022/08/18 03:01:28;;;;;;;1.60;1.30;;;17.10;99.90;;;;;;5093738;28;20402;-69
2022/08/18 03:03:55;;;;;;;1.83;1.73;;;17.00;99.90;;;;;;5075540;28;20437;-69
2022/08/18 03:06:22;;;;;;;1.40;1.30;;;16.90;99.90;;;;;;5093458;28;20439;-70
2022/08/18 03:08:50;;;;;;;0.60;0.60;;;16.90;99.90;;;;;;5075217;28;20410;-69
2022/08/18 03:11:19;;;;;;;1.10;1.00;;;16.70;99.90;;;;;;5093568;28;20767;-69
2022/08/18 03:13:45;;;;;;;2.33;1.47;;;16.60;99.90;;;;;;5093683;28;20402;-69
2022/08/18 03:16:11;;;;;;;1.30;1.30;;;16.50;99.90;;;;;;5093553;28;20484;-69
2022/08/18 03:18:37;;;;;;;1.67;1.57;;;16.40;99.90;;;;;;5093300;28;20826;-70
2022/08/18 03:21:14;;;;;;;0.77;0.77;;;16.30;99.90;;;;;;5093782;28;20431;-70
2022/08/18 03:23:41;;;;;;;1.00;0.70;;;16.30;99.90;;;;;;5093556;28;20233;-68
2022/08/18 03:26:10;;;;;;;0.50;0.50;;;16.30;99.90;;;;;;5093516;28;20394;-71
2022/08/18 03:28:37;;;;;;;1.80;1.70;;;16.20;99.90;;;;;;5093254;28;20391;-70
2022/08/18 03:31:02;;;;;;;2.67;2.47;;;16.20;99.90;;;;;;5093470;28;20422;-70
2022/08/18 03:33:28;;;;;;;2.00;1.13;;;16.30;99.90;;;;;;5093310;28;20418;-70
2022/08/18 03:35:54;;;;;;;3.10;1.43;;;16.30;99.90;;;;;;5093273;28;20171;-70
2022/08/18 03:38:19;;;;;;;1.40;1.27;;;16.50;99.90;;;;;;5093056;28;20202;-70
2022/08/18 03:40:50;;;;;;;1.70;1.60;;;16.60;99.90;;;;;;5093484;28;20175;-69
2022/08/18 03:43:16;;;;;;;2.73;1.63;;;16.70;99.90;;;;;;5093306;28;20204;-70
2022/08/18 03:45:42;;;;;;;1.27;1.20;;;16.70;99.90;;;;;;5093312;28;20394;-70
2022/08/18 03:48:09;;;;;;;5.30;1.17;;;16.70;99.90;;;;;;5092944;28;20673;-68
2022/08/18 03:50:34;;;;;;;1.20;1.20;;;16.80;99.90;;;;;;5075857;28;20579;-70
2022/08/18 03:53:00;;;;;;;1.70;1.60;;;16.80;99.90;;;;;;5093207;28;20483;-69
2022/08/18 03:55:28;;;;;;;2.70;2.03;;;16.90;99.90;;;;;;5093354;28;20259;-69
2022/08/18 03:58:03;;;;;;;1.43;1.33;;;16.80;99.90;;;;;;5074849;28;20193;-70
2022/08/18 04:00:30;;;;;;;1.30;1.20;;;16.90;99.90;;;;;;5093295;28;20424;-69
2022/08/18 04:02:58;;;;;;;0.50;0.50;;;16.80;99.90;;;;;;5093156;28;20508;-69
2022/08/18 04:05:24;;;;;;;1.90;1.23;;;16.70;99.90;;;;;;5093620;28;20398;-70
2022/08/18 04:07:50;;;;;;;0.60;0.60;;;16.70;99.90;;;;;;5095771;28;20839;-69
2022/08/18 04:10:16;;;;;;;1.67;1.57;;;16.70;99.90;;;;;;5096662;28;20399;-69
2022/08/18 04:12:42;;;;;;;2.87;1.10;;;16.70;99.90;;;;;;5096780;28;20172;-70
2022/08/18 04:15:08;;;;;;;0.70;0.70;;;16.80;99.90;;;;;;5096760;28;20407;-70
2022/08/18 04:17:34;;;;;;;1.43;1.10;;;16.90;99.90;;;;;;5096328;28;20220;-69
2022/08/18 04:19:59;;;;;;;1.43;1.33;;;16.90;99.90;;;;;;5096871;28;20525;-70
2022/08/18 04:22:25;;;;;;;2.93;1.23;;;16.90;99.90;;;;;;5096446;28;20614;-70
2022/08/18 04:24:51;;;;;;;0.90;0.90;;;17.00;99.90;;;;;;5096545;28;20192;-69
2022/08/18 04:27:19;;;;;;;1.23;1.23;;;16.90;99.90;;;;;;5096218;28;20200;-70
2022/08/18 04:29:45;;;;;;;1.30;1.20;;;16.90;99.90;;;;;;5096157;28;20434;-69
2022/08/18 04:32:11;;;;;;;1.07;0.87;;;16.90;99.90;;;;;;5096261;28;20415;-69
2022/08/18 04:34:36;;;;;;;2.60;2.00;;;17.00;99.90;;;;;;5096202;28;20407;-70
2022/08/18 04:37:02;;;;;;;2.57;2.17;;;17.00;99.90;;;;;;5095625;28;20196;-70
2022/08/18 04:39:29;;;;;;;3.20;1.30;;;17.00;99.90;;;;;;5096124;28;20202;-69
2022/08/18 04:41:54;;;;;;;3.50;1.13;;;17.00;99.90;;;;;;5096008;28;20226;-69
2022/08/18 04:44:21;;;;;;;2.17;1.57;;;17.10;99.90;;;;;;5096016;28;20794;-70
2022/08/18 04:46:52;;;;;;;1.53;1.40;;;17.10;99.90;;;;;;5096010;28;20191;-70
2022/08/18 04:49:20;;;;;;;1.43;1.10;;;17.00;99.90;;;;;;5095888;28;20556;-70
2022/08/18 04:54:37;;;;;;;0.90;0.90;;;17.00;99.90;;;;;;5096066;28;20440;-69
2022/08/18 04:57:15;;;;;;;2.20;1.40;;;16.90;99.90;;;;;;5095843;28;20470;-69
2022/08/18 04:59:44;;;;;;;1.20;1.10;;;17.00;99.90;;;;;;5093391;28;20830;-69
2022/08/18 05:02:10;;;;;;;1.07;0.63;;;17.00;99.90;;;;;;5095546;28;20477;-69
2022/08/18 05:04:39;;;;;;;2.40;2.20;;;17.10;99.90;;;;;;5095808;28;20755;-70
2022/08/18 05:07:08;;;;;;;1.40;1.30;;;17.10;99.90;;;;;;5095744;28;20779;-70
2022/08/18 05:09:34;;;;;;;1.50;1.33;;;17.10;99.90;;;;;;5095431;28;20489;-70
2022/08/18 05:12:02;;;;;;;0.87;0.87;;;17.10;99.90;;;;;;5095594;28;20770;-70
2022/08/18 05:14:28;;;;;;;1.20;1.10;;;17.00;99.90;;;;;;5095674;28;20763;-70
2022/08/18 05:16:59;;;;;;;1.00;1.00;;;16.90;99.90;;;;;;5095506;28;20431;-70
2022/08/18 05:19:25;;;;;;;2.00;1.90;;;16.90;99.90;;;;;;5094280;28;20395;-70
2022/08/18 05:21:52;;;;;;;0.97;0.87;;;16.80;99.90;;;;;;5095230;28;20809;-70
2022/08/18 05:24:20;;;;;;;3.10;1.17;;;16.80;99.90;;;;;;5095711;28;20817;-70
2022/08/18 05:26:47;;;;;;;1.80;1.70;;;16.90;99.90;;;;;;5095115;28;20437;-68
2022/08/18 05:29:14;;;;;;;0.50;0.50;;;17.00;99.90;;;;;;5095111;28;20485;-69
2022/08/18 05:31:40;;;;;;;1.17;1.07;;;17.00;99.90;;;;;;5095290;28;20434;-71
2022/08/18 05:34:05;;;;;;;0.93;0.93;;;17.10;99.90;;;;;;5095203;28;20407;-69
2022/08/18 05:36:37;;;;;;;1.50;0.90;;;17.10;99.90;;;;;;5094929;28;20185;-70
2022/08/18 05:39:10;;;;;;;0.50;0.50;;;17.20;99.90;;;;;;5094871;28;20181;-69
2022/08/18 05:41:40;;;;;;;1.30;1.20;;;17.20;99.90;;;;;;5095011;28;20407;-70
2022/08/18 05:44:08;;;;;;;1.77;1.37;;;17.10;99.90;;;;;;5095170;28;20405;-69
2022/08/18 05:46:51;;;;;;;3.33;1.67;;;17.20;99.90;;;;;;5094935;28;20419;-69
2022/08/18 05:49:18;;;;;;;1.80;1.20;;;17.20;99.90;;;;;;5094863;28;20735;-70
2022/08/18 05:51:53;;;;;;;1.60;1.50;;;17.40;99.90;;;;;;5094800;28;20904;-70
2022/08/18 05:57:10;;;;;;;0.90;0.90;;;17.40;99.90;;;;;;5094746;28;20492;-69
2022/08/18 05:59:38;;;;;;;1.23;1.17;;;17.30;99.90;;;;;;5094535;28;20462;-69
2022/08/18 06:02:37;;;;;;;1.80;0.93;;;17.30;99.90;;;;;;5094330;28;20470;-69
2022/08/18 06:05:12;;;;;;;1.17;1.17;;;17.40;99.90;;;;;;5094692;28;20809;-71
2022/08/18 06:07:55;;;;;;;1.03;0.93;;;17.40;99.90;;;;;;5094186;28;20422;-70
2022/08/18 06:10:21;;;;;;;0.73;0.73;;;17.60;99.90;;;;;;5094332;28;20395;-70
2022/08/18 06:12:50;;;;;;;2.10;1.30;;;17.70;99.90;;;;;;5094549;28;20403;-69
2022/08/18 06:15:24;;;;;;;1.50;1.40;;;17.70;99.90;;;;;;5094485;28;20403;-70
2022/08/18 06:18:27;;;;;;;0.93;0.83;;;17.80;99.90;;;;;;5094066;28;20899;-70
2022/08/18 06:21:01;;;;;;;1.50;1.20;;;17.80;99.90;;;;;;5094256;28;20402;-70
2022/08/18 06:23:51;;;;;;;1.40;1.33;;;17.90;99.90;;;;;;5094335;28;20450;-70
2022/08/18 06:26:24;;;;;;;1.00;1.00;;;18.00;99.90;;;;;;5094033;28;20399;-69
2022/08/18 06:29:09;;;;;;;2.00;1.00;;;18.00;99.90;;;;;;5094033;28;20460;-70
2022/08/18 06:31:41;;;;;;;1.20;1.10;;;18.00;99.90;;;;;;5094150;28;20479;-69
2022/08/18 06:34:13;;;;;;;2.73;1.43;;;18.00;99.90;;;;;;5094253;28;20443;-69
2022/08/18 06:36:44;;;;;;;3.17;2.97;;;17.90;99.90;;;;;;5093989;28;20511;-69
2022/08/18 06:39:30;;;;;;;2.10;1.90;;;17.90;99.90;;;;;;5093816;28;20804;-69
2022/08/18 06:41:56;;;;;;;2.10;1.80;;;18.00;99.90;;;;;;5094049;28;20446;-70
2022/08/18 06:44:37;;;;;;;2.10;2.00;;;18.00;99.90;;;;;;5093981;28;20395;-69
2022/08/18 06:47:15;;;;;;;1.67;1.57;;;18.00;99.90;;;;;;5093858;28;20197;-70
2022/08/18 06:49:55;;;;;;;2.73;1.97;;;18.00;99.90;;;;;;5075606;28;20825;-70
2022/08/18 06:52:26;;;;;;;1.90;1.33;;;18.00;99.90;;;;;;5093970;28;20403;-69
2022/08/18 06:54:54;;;;;;;3.07;1.83;;;18.10;99.90;;;;;;5094033;28;20399;-69
2022/08/18 06:57:25;;;;;;;2.00;1.30;;;18.20;99.90;;;;;;5093806;28;20438;-70
2022/08/18 06:59:59;;;;;;;1.17;0.80;;;18.40;99.90;;;;;;5093498;28;20423;-69
2022/08/18 07:03:05;;;;;;;0.90;0.90;;;18.50;99.90;;;;;;5093636;28;20465;-69
2022/08/18 07:05:34;;;;;;;1.00;1.00;;;18.70;99.90;;;;;;5091013;28;20451;-69
2022/08/18 07:08:17;;;;;;;1.03;0.87;;;18.90;99.90;;;;;;5093361;28;20937;-69
2022/08/18 07:10:49;;;;;;;0.43;0.43;;;19.10;99.90;;;;;;5093769;28;20405;-69
2022/08/18 07:13:28;;;;;;;1.47;1.37;;;19.20;99.90;;;;;;5093796;28;20412;-70
2022/08/18 07:16:14;;;;;;;1.23;1.13;;;19.30;99.90;;;;;;5093650;28;20488;-69
2022/08/18 07:18:40;;;;;;;1.03;1.03;;;19.30;99.90;;;;;;5093492;28;20953;-69
2022/08/18 07:21:05;;;;;;;0.90;0.90;;;19.20;99.90;;;;;;5093437;28;20401;-69
2022/08/18 07:23:33;;;;;;;2.40;2.20;;;19.20;99.90;;;;;;5093461;28;20452;-69
2022/08/18 07:26:16;;;;;;;0.60;0.60;;;19.20;99.90;;;;;;5093571;28;20205;-70
2022/08/18 07:28:47;;;;;;;0.87;0.87;;;19.20;99.90;;;;;;5093223;28;20466;-69
2022/08/18 07:31:26;;;;;;;1.90;1.43;;;19.30;99.90;;;;;;5075214;28;20424;-70
2022/08/18 07:34:17;;;;;;;1.57;1.43;;;19.40;99.90;;;;;;5093725;28;20489;-69
2022/08/18 07:36:53;;;;;;;1.03;1.03;;;19.50;99.90;;;;;;5084561;28;20502;-69
2022/08/18 07:39:28;;;;;;;1.03;0.80;;;19.60;99.90;;;;;;5093246;28;20463;-69
2022/08/18 07:42:05;;;;;;;0.97;0.87;;;19.80;99.90;;;;;;5094891;28;20502;-69
2022/08/18 07:44:53;;;;;;;1.10;1.10;;;20.00;99.90;;;;;;5097458;28;20437;-71
2022/08/18 07:47:32;;;;;;;0.80;0.80;;;20.10;99.90;;;;;;5097191;28;20422;-70
2022/08/18 07:50:00;;;;;;;1.40;1.30;;;20.30;99.90;;;;;;5096947;28;20415;-71
2022/08/18 07:52:34;;;;;;;0.67;0.67;;;20.30;99.90;;;;;;5097258;28;20405;-70
2022/08/18 07:55:18;;;;;;;1.10;0.83;;;20.40;99.90;;;;;;5097095;28;20411;-70
2022/08/18 07:57:47;;;;;;;0.60;0.60;;;20.60;99.90;;;;;;5096814;28;20454;-70
2022/08/18 08:00:18;;;;;;;0.80;0.80;;;20.90;99.90;;;;;;5096917;28;20429;-70
2022/08/18 08:02:55;;;;;;;0.50;0.50;;;21.20;99.90;;;;;;5096805;28;20871;-69
2022/08/18 08:05:37;;;;;;;2.60;1.67;;;21.50;99.60;;;;;;5097176;28;20398;-69
2022/08/18 08:08:29;;;;;;;0.70;0.70;;;21.70;99.10;;;;;;5096686;28;20423;-69
2022/08/18 08:11:12;;;;;;;1.00;0.80;;;21.70;98.50;;;;;;5096731;28;20399;-71
2022/08/18 08:13:46;;;;;;;0.70;0.70;;;21.80;99.00;;;;;;5096713;28;20496;-69
2022/08/18 08:16:27;;;;;;;1.80;0.80;;;22.10;99.20;;;;;;5096771;28;20734;-70
2022/08/18 08:19:19;;;;;;;1.37;1.00;;;22.20;96.80;;;;;;5096753;28;20545;-70
2022/08/18 08:21:56;;;;;;;1.00;1.00;;;22.50;97.90;;;;;;5096587;28;20454;-69
2022/08/18 08:24:32;;;;;;;0.60;0.60;;;23.00;96.40;;;;;;5096744;28;20394;-69
2022/08/18 08:27:08;;;;;;;0.60;0.60;;;23.40;95.60;;;;;;5096518;28;20906;-70
2022/08/18 08:30:05;;;;;;;1.27;1.27;;;23.80;95.60;;;;;;5096223;28;20764;-70
2022/08/18 08:32:36;;;;;;;0.90;0.90;;;23.50;94.20;;;;;;5096426;28;20406;-70
2022/08/18 08:35:11;;;;;;;0.70;0.70;;;23.40;95.70;;;;;;5096462;28;20376;-70
2022/08/18 08:38:00;;;;;;;0.90;0.90;;;23.70;95.90;;;;;;5096119;28;20818;-70
2022/08/18 08:40:32;;;;;;;1.03;0.80;;;24.70;93.60;;;;;;5096237;28;20438;-70
2022/08/18 08:43:07;;;;;;;0.50;0.50;;;25.30;90.30;;;;;;5096279;28;20749;-70
2022/08/18 08:45:49;;;;;;;1.30;1.20;;;25.00;91.30;;;;;;5096221;28;20776;-70
2022/08/18 08:48:28;;;;;;;0.70;0.70;;;25.40;90.30;;;;;;5095760;28;20424;-70
2022/08/18 08:51:17;;;;;;;1.87;0.80;;;26.80;90.10;;;;;;5096182;28;20430;-70
2022/08/18 08:54:15;;;;;;;0.77;0.67;;;28.80;87.60;;;;;;5094817;28;20498;-70
2022/08/18 08:56:46;;;;;;;1.00;0.83;;;29.40;76.90;;;;;;5095970;28;20993;-71
2022/08/18 08:59:15;;;;;;;1.70;0.77;;;29.80;76.50;;;;;;5095639;28;20418;-71
2022/08/18 09:01:54;;;;;;;1.20;1.10;;;30.00;69.20;;;;;;5095526;28;20410;-70
2022/08/18 09:04:44;;;;;;;0.70;0.70;;;29.30;71.40;;;;;;5095893;28;20403;-71
2022/08/18 09:07:35;;;;;;;0.93;0.87;;;28.40;72.30;;;;;;5095561;28;20410;-70
2022/08/18 09:10:38;;;;;;;1.70;0.90;;;27.50;75.90;;;;;;5095860;28;20875;-70
2022/08/18 09:13:16;;;;;;;0.83;0.80;;;26.50;83.40;;;;;;5095471;28;20414;-70
2022/08/18 09:16:17;;;;;;;1.63;0.83;;;25.80;90.00;;;;;;5077322;28;20397;-70
2022/08/18 09:19:12;;;;;;;1.03;0.80;;;25.00;89.70;;;;;;5084365;28;20512;-70
2022/08/18 09:22:03;;;;;;;0.93;0.90;;;24.40;91.00;;;;;;5095294;28;20375;-69
2022/08/18 09:24:38;;;;;;;1.43;0.70;;;24.00;91.80;;;;;;5088270;28;20398;-70
2022/08/18 09:27:29;;;;;;;1.03;0.83;;;23.80;92.90;;;;;;5095416;28;20906;-70
2022/08/18 09:29:58;;;;;;;1.23;0.90;;;23.80;93.20;;;;;;5087881;28;20835;-70
2022/08/18 09:32:24;;;;;;;1.27;1.17;;;24.00;91.80;;;;;;5095092;28;20459;-70
2022/08/18 09:35:02;;;;;;;0.70;0.70;;;25.00;93.50;;;;;;5095317;28;20377;-71
2022/08/18 09:41:30;;;;;;;2.20;0.87;;;26.70;87.20;;;;;;5094998;28;20947;-70
2022/08/18 09:44:08;;;;;;;0.93;0.80;;;28.00;78.60;;;;;;5094916;28;20512;-70
2022/08/18 09:46:40;;;;;;;1.03;0.93;;;27.80;74.70;;;;;;5094792;28;20437;-71
2022/08/18 09:49:26;;;;;;;0.73;0.73;;;27.50;78.60;;;;;;5094729;28;20430;-70
2022/08/18 09:51:53;;;;;;;1.03;0.90;;;26.60;77.40;;;;;;5084210;28;20820;-70
2022/08/18 09:54:31;;;;;;;0.63;0.63;;;25.90;83.60;;;;;;5094685;28;20861;-70
2022/08/18 09:57:16;;;;;;;0.70;0.70;;;25.40;86.30;;;;;;5094627;28;20404;-70
2022/08/18 09:59:46;;;;;;;0.70;0.63;;;25.20;87.60;;;;;;5094465;28;20409;-70
2022/08/18 10:02:31;;;;;;;1.13;1.03;;;24.90;88.60;;;;;;5094416;28;20501;-71
2022/08/18 10:05:18;;;;;;;0.77;0.77;;;24.80;90.20;;;;;;5075711;28;20927;-69
2022/08/18 10:08:16;;;;;;;1.20;1.20;;;24.60;91.00;;;;;;5094296;28;20397;-70
2022/08/18 10:11:10;;;;;;;1.63;0.90;;;24.20;92.00;;;;;;5094039;28;20418;-69
2022/08/18 10:14:20;;;;;;;0.83;0.83;;;23.90;91.70;;;;;;5083251;28;20411;-71
2022/08/18 10:17:08;;;;;;;0.83;0.83;;;23.40;92.60;;;;;;5031945;28;20444;-70
2022/08/18 10:20:15;;;;;;;0.67;0.67;;;23.10;93.50;;;;;;5090806;28;20386;-70
2022/08/18 10:22:46;;;;;;;0.77;0.67;;;23.10;93.60;;;;;;5094157;28;20860;-71
2022/08/18 10:25:13;;;;;;;0.80;0.80;;;23.30;94.00;;;;;;5094181;28;20376;-71
2022/08/18 10:27:45;;;;;;;0.80;0.50;;;23.60;93.70;;;;;;5093744;28;20430;-70
2022/08/18 10:30:37;;;;;;;0.77;0.77;;;23.50;93.70;;;;;;5094044;28;20422;-71
2022/08/18 10:33:10;;;;;;;0.70;0.70;;;23.00;94.30;;;;;;5094245;28;20381;-71
2022/08/18 10:35:35;;;;;;;0.80;0.60;;;22.90;94.60;;;;;;5076007;28;20418;-71
2022/08/18 10:38:11;;;;;;;1.27;1.17;;;22.80;94.50;;;;;;5075710;28;20529;-70
2022/08/18 10:40:39;;;;;;;1.30;1.20;;;22.80;94.70;;;;;;5093910;28;20179;-70
2022/08/18 10:43:08;;;;;;;0.60;0.60;;;22.90;94.90;;;;;;5093909;28;20885;-70
2022/08/18 10:45:36;;;;;;;1.30;0.70;;;23.00;94.90;;;;;;5075857;28;20419;-70
2022/08/18 10:48:21;;;;;;;1.73;1.03;;;23.10;95.20;;;;;;5093512;28;20435;-70
2022/08/18 10:50:51;;;;;;;0.90;0.90;;;23.40;95.10;;;;;;5093847;28;20405;-70
2022/08/18 10:53:36;;;;;;;0.70;0.67;;;23.30;94.50;;;;;;5093998;28;20414;-69
2022/08/18 10:56:10;;;;;;;1.20;1.10;;;23.20;94.60;;;;;;5093815;28;20974;-70
2022/08/18 10:58:51;;;;;;;1.37;1.10;;;23.10;94.90;;;;;;5093525;28;20413;-71
2022/08/18 11:01:45;;;;;;;0.60;0.60;;;23.10;95.00;;;;;;5093659;28;20424;-70
2022/08/18 11:04:28;;;;;;;1.40;0.93;;;22.90;95.30;;;;;;5093840;28;20415;-70
2022/08/18 11:07:13;;;;;;;1.33;0.90;;;22.90;95.80;;;;;;5093620;28;20422;-70
2022/08/18 11:09:40;;;;;;;1.87;1.37;;;22.90;95.80;;;;;;5075256;28;20873;-70
2022/08/18 11:12:06;;;;;;;0.60;0.60;;;23.00;96.20;;;;;;5093531;28;20398;-69
2022/08/18 11:14:44;;;;;;;0.70;0.70;;;22.70;96.20;;;;;;5075488;28;20529;-70
2022/08/18 11:17:21;;;;;;;0.97;0.90;;;22.40;96.50;;;;;;5095652;28;20425;-70
2022/08/18 11:19:47;;;;;;;1.00;1.00;;;22.00;96.60;;;;;;5097703;28;20452;-70
2022/08/18 11:22:27;;;;;;;1.70;1.60;;;21.70;97.60;;;;;;5097529;28;20531;-69
2022/08/18 11:24:53;;;;;;;1.47;1.37;;;21.70;97.70;;;;;;5097878;28;20410;-70
2022/08/18 11:27:26;;;;;;;1.83;1.37;;;21.60;97.70;;;;;;5097494;28;20423;-70
2022/08/18 11:29:57;;;;;;;1.30;0.87;;;21.50;98.00;;;;;;5097536;28;20513;-71
2022/08/18 11:32:35;;;;;;;1.23;1.13;;;21.60;98.10;;;;;;5097600;28;20408;-70
2022/08/18 11:35:14;;;;;;;1.47;1.03;;;21.90;98.10;;;;;;5097583;28;20501;-69
2022/08/18 11:37:40;;;;;;;2.13;0.90;;;22.10;97.60;;;;;;5097199;28;20425;-70
2022/08/18 11:40:17;;;;;;;1.27;1.00;;;22.00;97.10;;;;;;5097442;28;20400;-70
2022/08/18 11:42:53;;;;;;;1.40;1.30;;;21.80;97.50;;;;;;5097387;28;20194;-69
2022/08/18 11:45:22;;;;;;;1.40;1.00;;;21.70;97.80;;;;;;5097653;28;20395;-71
2022/08/18 11:48:13;;;;;;;2.23;1.93;;;21.80;97.90;;;;;;5078716;28;20428;-70
2022/08/18 11:51:07;;;;;;;0.93;0.93;;;21.80;97.60;;;;;;5097176;28;20399;-70
2022/08/18 11:53:50;;;;;;;0.63;0.63;;;21.70;97.60;;;;;;5095650;28;20405;-70
2022/08/18 11:56:19;;;;;;;0.97;0.97;;;21.70;98.10;;;;;;5097355;28;20900;-69
2022/08/18 11:58:51;;;;;;;1.33;1.23;;;21.70;98.20;;;;;;5096782;28;20763;-69
2022/08/18 12:01:54;;;;;;;1.00;0.90;;;21.90;98.10;;;;;;5097044;28;20393;-70
2022/08/18 12:04:26;;;;;;;1.40;0.90;;;22.00;97.90;;;;;;5097278;28;20977;-70
2022/08/18 12:07:07;;;;;;;1.13;1.13;;;22.00;98.40;;;;;;5096676;28;20916;-70
2022/08/18 12:09:45;;;;;;;2.23;2.13;;;22.10;97.60;;;;;;5096810;28;20405;-70
2022/08/18 12:12:26;;;;;;;1.03;1.03;;;22.00;98.10;;;;;;5096623;28;20457;-70
2022/08/18 12:15:25;;;;;;;1.00;0.90;;;21.90;97.80;;;;;;5096671;28;20397;-70
2022/08/18 12:17:51;;;;;;;1.00;0.90;;;22.00;97.90;;;;;;5096358;28;20424;-70
2022/08/18 12:20:17;;;;;;;1.27;1.17;;;22.10;98.10;;;;;;5096635;28;20886;-70
2022/08/18 12:22:44;;;;;;;1.13;1.13;;;22.10;97.90;;;;;;5096476;28;20453;-70
2022/08/18 12:25:13;;;;;;;0.93;0.93;;;22.20;98.40;;;;;;5096506;28;20546;-69
2022/08/18 12:27:39;;;;;;;0.67;0.67;;;22.20;97.80;;;;;;5095985;28;20409;-70
2022/08/18 12:30:07;;;;;;;1.07;0.90;;;22.00;98.00;;;;;;5096476;28;20808;-71
2022/08/18 12:32:34;;;;;;;0.90;0.90;;;21.90;97.90;;;;;;5096486;28;20451;-69
2022/08/18 12:35:01;;;;;;;1.70;1.40;;;21.90;98.30;;;;;;5096437;28;20401;-70
2022/08/18 12:37:28;;;;;;;1.00;0.93;;;21.90;98.20;;;;;;5096142;28;20431;-70
2022/08/18 12:39:55;;;;;;;1.47;1.33;;;21.90;98.00;;;;;;5096083;28;20403;-70
2022/08/18 12:42:21;;;;;;;1.03;0.67;;;21.90;98.10;;;;;;5096094;28;20451;-71
2022/08/18 12:44:47;;;;;;;1.20;1.20;;;21.90;98.20;;;;;;5096217;28;20484;-69
2022/08/18 12:47:24;;;;;;;0.80;0.80;;;21.90;98.80;;;;;;5096073;28;20427;-69
2022/08/18 12:49:51;;;;;;;1.23;1.13;;;21.60;98.40;;;;;;5095832;28;20400;-70
2022/08/18 12:52:19;;;;;;;1.77;1.40;;;21.50;99.10;;;;;;5096158;28;20410;-71
2022/08/18 12:54:46;;;;;;;1.00;1.00;;;21.40;99.20;;;;;;5095963;28;20834;-70
2022/08/18 12:57:24;;;;;;;0.80;0.80;;;21.50;99.50;;;;;;5095805;28;20431;-69
2022/08/18 12:59:49;;;;;;;0.63;0.60;;;21.30;99.50;;;;;;5095684;28;20407;-70
2022/08/18 13:02:15;;;;;;;1.83;1.63;;;21.20;99.90;;;;;;5095969;28;20455;-70
2022/08/18 13:04:41;;;;;;;0.73;0.70;;;21.20;99.90;;;;;;5096003;28;20400;-69
2022/08/18 13:07:09;;;;;;;1.40;1.37;;;21.10;99.90;;;;;;5095704;28;20474;-69
2022/08/18 13:09:36;;;;;;;1.40;0.90;;;21.10;99.90;;;;;;5077444;28;20399;-69
2022/08/18 13:12:01;;;;;;;0.77;0.77;;;21.20;99.90;;;;;;5095744;28;20399;-70
2022/08/18 13:14:27;;;;;;;2.00;1.27;;;21.20;99.90;;;;;;5095683;28;20399;-70
2022/08/18 13:16:53;;;;;;;1.33;1.23;;;21.20;99.90;;;;;;5095427;28;20197;-70
2022/08/18 13:19:20;;;;;;;1.03;0.90;;;21.20;99.90;;;;;;5095370;28;20163;-70
2022/08/18 13:21:45;;;;;;;1.30;1.30;;;21.20;99.90;;;;;;5095615;28;20457;-70
2022/08/18 13:24:12;;;;;;;0.80;0.80;;;21.00;99.90;;;;;;5095394;28;20879;-70
2022/08/18 13:26:43;;;;;;;3.70;1.33;;;21.00;99.90;;;;;;5095269;28;20415;-70
2022/08/18 13:29:09;;;;;;;1.50;1.40;;;20.90;99.90;;;;;;5095054;28;20394;-70
2022/08/18 13:31:36;;;;;;;0.70;0.70;;;20.80;99.90;;;;;;5095226;28;20612;-69
2022/08/18 13:34:03;;;;;;;0.60;0.50;;;20.70;99.90;;;;;;5095289;28;20164;-70